sensor_id;sensor_type;location;lat;lon;timestamp;P1;durP1;ratioP1;P2;durP2;ratioP2
39020;SDS011;25188;51.958;5.842;2022-11-20T00:01:50;16.90;;;8.73;;
39020;SDS011;25188;51.958;5.842;2022-11-20T00:04:15;17.33;;;9.03;;
39020;SDS011;25188;51.958;5.842;2022-11-20T00:06:41;17.33;;;9.13;;
39020;SDS011;25188;51.958;5.842;2022-11-20T00:09:09;16.30;;;8.57;;
39020;SDS011;25188;51.958;5.842;2022-11-20T00:11:35;15.77;;;8.67;;
39020;SDS011;25188;51.958;5.842;2022-11-20T00:14:01;16.23;;;8.20;;
39020;SDS011;25188;51.958;5.842;2022-11-20T00:16:28;18.10;;;8.50;;
39020;SDS011;25188;51.958;5.842;2022-11-20T00:18:56;16.43;;;9.10;;
39020;SDS011;25188;51.958;5.842;2022-11-20T00:21:22;15.37;;;7.67;;
39020;SDS011;25188;51.958;5.842;2022-11-20T00:23:50;17.87;;;8.53;;
39020;SDS011;25188;51.958;5.842;2022-11-20T00:26:18;16.57;;;8.07;;
39020;SDS011;25188;51.958;5.842;2022-11-20T00:28:48;15.37;;;7.33;;
39020;SDS011;25188;51.958;5.842;2022-11-20T00:31:16;15.03;;;7.63;;
39020;SDS011;25188;51.958;5.842;2022-11-20T00:33:43;17.67;;;8.40;;
39020;SDS011;25188;51.958;5.842;2022-11-20T00:36:10;16.80;;;9.13;;
39020;SDS011;25188;51.958;5.842;2022-11-20T00:38:38;17.40;;;8.23;;
39020;SDS011;25188;51.958;5.842;2022-11-20T00:41:06;17.27;;;8.03;;
39020;SDS011;25188;51.958;5.842;2022-11-20T00:43:33;17.40;;;8.20;;
39020;SDS011;25188;51.958;5.842;2022-11-20T00:46:00;17.50;;;8.17;;
39020;SDS011;25188;51.958;5.842;2022-11-20T00:48:26;17.00;;;7.93;;
39020;SDS011;25188;51.958;5.842;2022-11-20T00:50:53;18.27;;;8.73;;
39020;SDS011;25188;51.958;5.842;2022-11-20T00:53:18;15.97;;;8.10;;
39020;SDS011;25188;51.958;5.842;2022-11-20T00:58:24;15.93;;;8.73;;
39020;SDS011;25188;51.958;5.842;2022-11-20T01:00:53;17.83;;;8.17;;
39020;SDS011;25188;51.958;5.842;2022-11-20T01:03:24;17.17;;;7.87;;
39020;SDS011;25188;51.958;5.842;2022-11-20T01:05:50;18.90;;;9.07;;
39020;SDS011;25188;51.958;5.842;2022-11-20T01:08:15;15.63;;;8.03;;
39020;SDS011;25188;51.958;5.842;2022-11-20T01:10:41;18.23;;;8.80;;
39020;SDS011;25188;51.958;5.842;2022-11-20T01:13:07;16.07;;;8.03;;
39020;SDS011;25188;51.958;5.842;2022-11-20T01:15:51;16.10;;;7.78;;
39020;SDS011;25188;51.958;5.842;2022-11-20T01:18:17;17.03;;;8.33;;
39020;SDS011;25188;51.958;5.842;2022-11-20T01:20:43;17.90;;;8.63;;
39020;SDS011;25188;51.958;5.842;2022-11-20T01:23:08;17.47;;;8.27;;
39020;SDS011;25188;51.958;5.842;2022-11-20T01:25:34;18.20;;;9.73;;
39020;SDS011;25188;51.958;5.842;2022-11-20T01:28:00;15.20;;;8.10;;
39020;SDS011;25188;51.958;5.842;2022-11-20T01:30:25;14.30;;;7.53;;
39020;SDS011;25188;51.958;5.842;2022-11-20T01:32:51;16.33;;;8.00;;
39020;SDS011;25188;51.958;5.842;2022-11-20T01:35:17;17.53;;;8.67;;
39020;SDS011;25188;51.958;5.842;2022-11-20T01:37:42;16.67;;;8.30;;
39020;SDS011;25188;51.958;5.842;2022-11-20T01:40:08;14.43;;;7.27;;
39020;SDS011;25188;51.958;5.842;2022-11-20T01:42:34;15.70;;;8.13;;
39020;SDS011;25188;51.958;5.842;2022-11-20T01:48:25;13.80;;;7.30;;
39020;SDS011;25188;51.958;5.842;2022-11-20T01:50:56;16.33;;;8.37;;
39020;SDS011;25188;51.958;5.842;2022-11-20T01:53:24;16.90;;;8.33;;
39020;SDS011;25188;51.958;5.842;2022-11-20T01:55:53;13.57;;;7.30;;
39020;SDS011;25188;51.958;5.842;2022-11-20T01:58:22;17.70;;;8.87;;
39020;SDS011;25188;51.958;5.842;2022-11-20T02:00:55;14.85;;;6.60;;
39020;SDS011;25188;51.958;5.842;2022-11-20T02:03:20;15.00;;;7.60;;
39020;SDS011;25188;51.958;5.842;2022-11-20T02:05:49;14.73;;;7.77;;
39020;SDS011;25188;51.958;5.842;2022-11-20T02:08:30;16.55;;;7.75;;
39020;SDS011;25188;51.958;5.842;2022-11-20T02:10:58;16.83;;;8.33;;
39020;SDS011;25188;51.958;5.842;2022-11-20T02:13:23;20.37;;;8.70;;
39020;SDS011;25188;51.958;5.842;2022-11-20T02:16:08;15.45;;;7.65;;
39020;SDS011;25188;51.958;5.842;2022-11-20T02:18:38;18.27;;;8.93;;
39020;SDS011;25188;51.958;5.842;2022-11-20T02:21:17;18.63;;;8.30;;
39020;SDS011;25188;51.958;5.842;2022-11-20T02:24:44;16.20;;;8.27;;
39020;SDS011;25188;51.958;5.842;2022-11-20T02:26:50;16.70;;;8.17;;
39020;SDS011;25188;51.958;5.842;2022-11-20T02:32:05;17.13;;;7.90;;
39020;SDS011;25188;51.958;5.842;2022-11-20T02:34:31;16.37;;;7.80;;
39020;SDS011;25188;51.958;5.842;2022-11-20T02:36:57;18.20;;;8.13;;
39020;SDS011;25188;51.958;5.842;2022-11-20T02:39:25;15.73;;;7.77;;
39020;SDS011;25188;51.958;5.842;2022-11-20T02:41:53;15.37;;;7.73;;
39020;SDS011;25188;51.958;5.842;2022-11-20T02:44:20;17.57;;;8.10;;
39020;SDS011;25188;51.958;5.842;2022-11-20T02:46:47;18.77;;;8.93;;
39020;SDS011;25188;51.958;5.842;2022-11-20T02:49:13;16.17;;;8.00;;
39020;SDS011;25188;51.958;5.842;2022-11-20T02:51:38;16.40;;;8.30;;
39020;SDS011;25188;51.958;5.842;2022-11-20T02:54:04;15.30;;;7.57;;
39020;SDS011;25188;51.958;5.842;2022-11-20T02:56:30;15.27;;;7.67;;
39020;SDS011;25188;51.958;5.842;2022-11-20T02:58:55;16.13;;;8.17;;
39020;SDS011;25188;51.958;5.842;2022-11-20T03:01:21;16.00;;;8.27;;
39020;SDS011;25188;51.958;5.842;2022-11-20T03:03:47;17.13;;;8.03;;
39020;SDS011;25188;51.958;5.842;2022-11-20T03:06:17;17.97;;;8.10;;
39020;SDS011;25188;51.958;5.842;2022-11-20T03:08:42;14.73;;;7.53;;
39020;SDS011;25188;51.958;5.842;2022-11-20T03:11:08;16.60;;;7.63;;
39020;SDS011;25188;51.958;5.842;2022-11-20T03:13:34;15.90;;;8.13;;
39020;SDS011;25188;51.958;5.842;2022-11-20T03:16:10;15.07;;;7.90;;
39020;SDS011;25188;51.958;5.842;2022-11-20T03:18:39;14.97;;;7.63;;
39020;SDS011;25188;51.958;5.842;2022-11-20T03:21:05;15.70;;;7.53;;
39020;SDS011;25188;51.958;5.842;2022-11-20T03:23:32;16.73;;;7.70;;
39020;SDS011;25188;51.958;5.842;2022-11-20T03:26:09;16.53;;;7.57;;
39020;SDS011;25188;51.958;5.842;2022-11-20T03:28:41;16.97;;;7.80;;
39020;SDS011;25188;51.958;5.842;2022-11-20T03:31:12;14.70;;;8.27;;
39020;SDS011;25188;51.958;5.842;2022-11-20T03:33:39;15.57;;;7.77;;
39020;SDS011;25188;51.958;5.842;2022-11-20T03:36:08;18.57;;;8.80;;
39020;SDS011;25188;51.958;5.842;2022-11-20T03:38:35;17.90;;;8.83;;
39020;SDS011;25188;51.958;5.842;2022-11-20T03:41:21;15.17;;;8.10;;
39020;SDS011;25188;51.958;5.842;2022-11-20T03:43:52;19.47;;;8.77;;
39020;SDS011;25188;51.958;5.842;2022-11-20T03:46:20;18.00;;;7.63;;
39020;SDS011;25188;51.958;5.842;2022-11-20T03:48:46;15.70;;;7.97;;
39020;SDS011;25188;51.958;5.842;2022-11-20T03:51:13;16.23;;;7.77;;
39020;SDS011;25188;51.958;5.842;2022-11-20T03:53:40;18.63;;;8.63;;
39020;SDS011;25188;51.958;5.842;2022-11-20T03:56:07;16.57;;;7.90;;
39020;SDS011;25188;51.958;5.842;2022-11-20T03:58:34;17.40;;;8.17;;
39020;SDS011;25188;51.958;5.842;2022-11-20T04:01:13;16.23;;;7.27;;
39020;SDS011;25188;51.958;5.842;2022-11-20T04:03:41;16.33;;;7.20;;
39020;SDS011;25188;51.958;5.842;2022-11-20T04:06:12;13.60;;;7.47;;
39020;SDS011;25188;51.958;5.842;2022-11-20T04:08:40;16.50;;;8.37;;
39020;SDS011;25188;51.958;5.842;2022-11-20T04:11:10;18.03;;;8.00;;
39020;SDS011;25188;51.958;5.842;2022-11-20T04:13:48;16.13;;;7.60;;
39020;SDS011;25188;51.958;5.842;2022-11-20T04:16:15;16.90;;;7.87;;
39020;SDS011;25188;51.958;5.842;2022-11-20T04:18:41;15.27;;;7.67;;
39020;SDS011;25188;51.958;5.842;2022-11-20T04:21:07;21.27;;;8.97;;
39020;SDS011;25188;51.958;5.842;2022-11-20T04:23:33;16.43;;;8.27;;
39020;SDS011;25188;51.958;5.842;2022-11-20T04:26:05;16.50;;;8.27;;
39020;SDS011;25188;51.958;5.842;2022-11-20T04:28:35;18.73;;;8.53;;
39020;SDS011;25188;51.958;5.842;2022-11-20T04:31:08;19.30;;;9.37;;
39020;SDS011;25188;51.958;5.842;2022-11-20T04:33:36;19.00;;;8.97;;
39020;SDS011;25188;51.958;5.842;2022-11-20T04:36:03;16.70;;;8.60;;
39020;SDS011;25188;51.958;5.842;2022-11-20T04:38:31;21.23;;;8.57;;
39020;SDS011;25188;51.958;5.842;2022-11-20T04:40:58;19.30;;;9.27;;
39020;SDS011;25188;51.958;5.842;2022-11-20T04:43:28;18.07;;;8.40;;
39020;SDS011;25188;51.958;5.842;2022-11-20T04:45:54;16.73;;;7.97;;
39020;SDS011;25188;51.958;5.842;2022-11-20T04:48:20;18.13;;;8.53;;
39020;SDS011;25188;51.958;5.842;2022-11-20T04:50:46;16.40;;;7.83;;
39020;SDS011;25188;51.958;5.842;2022-11-20T04:53:12;16.70;;;7.80;;
39020;SDS011;25188;51.958;5.842;2022-11-20T04:55:37;17.83;;;7.67;;
39020;SDS011;25188;51.958;5.842;2022-11-20T04:58:03;14.97;;;8.20;;
39020;SDS011;25188;51.958;5.842;2022-11-20T05:00:28;15.30;;;7.97;;
39020;SDS011;25188;51.958;5.842;2022-11-20T05:02:54;17.37;;;8.33;;
39020;SDS011;25188;51.958;5.842;2022-11-20T05:05:20;17.13;;;7.87;;
39020;SDS011;25188;51.958;5.842;2022-11-20T05:07:46;18.27;;;8.13;;
39020;SDS011;25188;51.958;5.842;2022-11-20T05:10:11;19.53;;;8.80;;
39020;SDS011;25188;51.958;5.842;2022-11-20T05:12:37;18.20;;;8.60;;
39020;SDS011;25188;51.958;5.842;2022-11-20T05:15:03;18.07;;;8.50;;
39020;SDS011;25188;51.958;5.842;2022-11-20T05:17:28;14.60;;;7.53;;
39020;SDS011;25188;51.958;5.842;2022-11-20T05:19:54;15.43;;;8.03;;
39020;SDS011;25188;51.958;5.842;2022-11-20T05:22:20;16.23;;;7.90;;
39020;SDS011;25188;51.958;5.842;2022-11-20T05:24:45;16.33;;;7.90;;
39020;SDS011;25188;51.958;5.842;2022-11-20T05:27:11;17.30;;;8.60;;
39020;SDS011;25188;51.958;5.842;2022-11-20T05:29:37;18.93;;;8.53;;
39020;SDS011;25188;51.958;5.842;2022-11-20T05:32:02;15.70;;;7.93;;
39020;SDS011;25188;51.958;5.842;2022-11-20T05:34:30;16.73;;;8.20;;
39020;SDS011;25188;51.958;5.842;2022-11-20T05:36:56;18.93;;;8.03;;
39020;SDS011;25188;51.958;5.842;2022-11-20T05:39:22;18.17;;;8.27;;
39020;SDS011;25188;51.958;5.842;2022-11-20T05:41:47;18.67;;;8.20;;
39020;SDS011;25188;51.958;5.842;2022-11-20T05:44:33;17.77;;;7.63;;
39020;SDS011;25188;51.958;5.842;2022-11-20T05:46:58;16.93;;;7.97;;
39020;SDS011;25188;51.958;5.842;2022-11-20T05:49:24;18.93;;;8.70;;
39020;SDS011;25188;51.958;5.842;2022-11-20T05:51:50;17.20;;;8.60;;
39020;SDS011;25188;51.958;5.842;2022-11-20T05:54:15;15.80;;;7.73;;
39020;SDS011;25188;51.958;5.842;2022-11-20T05:56:41;17.03;;;8.67;;
39020;SDS011;25188;51.958;5.842;2022-11-20T05:59:07;17.23;;;8.67;;
39020;SDS011;25188;51.958;5.842;2022-11-20T06:01:32;19.03;;;8.30;;
39020;SDS011;25188;51.958;5.842;2022-11-20T06:03:58;18.13;;;8.27;;
39020;SDS011;25188;51.958;5.842;2022-11-20T06:06:24;19.03;;;8.83;;
39020;SDS011;25188;51.958;5.842;2022-11-20T06:08:50;18.83;;;8.80;;
39020;SDS011;25188;51.958;5.842;2022-11-20T06:11:16;17.63;;;8.33;;
39020;SDS011;25188;51.958;5.842;2022-11-20T06:13:43;16.57;;;8.03;;
39020;SDS011;25188;51.958;5.842;2022-11-20T06:16:10;16.97;;;8.33;;
39020;SDS011;25188;51.958;5.842;2022-11-20T06:18:38;17.87;;;8.00;;
39020;SDS011;25188;51.958;5.842;2022-11-20T06:21:08;19.33;;;8.77;;
39020;SDS011;25188;51.958;5.842;2022-11-20T06:23:36;17.63;;;8.57;;
39020;SDS011;25188;51.958;5.842;2022-11-20T06:26:04;17.97;;;8.57;;
39020;SDS011;25188;51.958;5.842;2022-11-20T06:28:34;18.07;;;8.57;;
39020;SDS011;25188;51.958;5.842;2022-11-20T06:31:00;17.93;;;9.27;;
39020;SDS011;25188;51.958;5.842;2022-11-20T06:33:27;18.40;;;9.10;;
39020;SDS011;25188;51.958;5.842;2022-11-20T06:35:55;18.03;;;8.83;;
39020;SDS011;25188;51.958;5.842;2022-11-20T06:38:25;17.37;;;9.30;;
39020;SDS011;25188;51.958;5.842;2022-11-20T06:40:51;18.20;;;9.00;;
39020;SDS011;25188;51.958;5.842;2022-11-20T06:43:17;19.07;;;9.17;;
39020;SDS011;25188;51.958;5.842;2022-11-20T06:45:43;18.57;;;9.23;;
39020;SDS011;25188;51.958;5.842;2022-11-20T06:48:08;17.67;;;9.03;;
39020;SDS011;25188;51.958;5.842;2022-11-20T06:50:35;19.27;;;9.07;;
39020;SDS011;25188;51.958;5.842;2022-11-20T06:53:02;20.73;;;9.23;;
39020;SDS011;25188;51.958;5.842;2022-11-20T06:55:29;17.87;;;8.67;;
39020;SDS011;25188;51.958;5.842;2022-11-20T06:57:55;16.93;;;9.00;;
39020;SDS011;25188;51.958;5.842;2022-11-20T07:00:21;16.20;;;8.47;;
39020;SDS011;25188;51.958;5.842;2022-11-20T07:02:47;19.50;;;9.67;;
39020;SDS011;25188;51.958;5.842;2022-11-20T07:05:12;18.70;;;8.90;;
39020;SDS011;25188;51.958;5.842;2022-11-20T07:07:38;18.10;;;8.57;;
39020;SDS011;25188;51.958;5.842;2022-11-20T07:10:04;18.20;;;7.93;;
39020;SDS011;25188;51.958;5.842;2022-11-20T07:12:30;18.50;;;9.13;;
39020;SDS011;25188;51.958;5.842;2022-11-20T07:14:55;19.47;;;9.30;;
39020;SDS011;25188;51.958;5.842;2022-11-20T07:17:21;17.63;;;8.67;;
39020;SDS011;25188;51.958;5.842;2022-11-20T07:19:47;17.37;;;8.53;;
39020;SDS011;25188;51.958;5.842;2022-11-20T07:22:12;19.63;;;8.70;;
39020;SDS011;25188;51.958;5.842;2022-11-20T07:24:38;15.97;;;7.97;;
39020;SDS011;25188;51.958;5.842;2022-11-20T07:27:04;17.83;;;8.33;;
39020;SDS011;25188;51.958;5.842;2022-11-20T07:29:30;15.80;;;8.73;;
39020;SDS011;25188;51.958;5.842;2022-11-20T07:31:55;17.73;;;8.70;;
39020;SDS011;25188;51.958;5.842;2022-11-20T07:34:22;18.20;;;8.67;;
39020;SDS011;25188;51.958;5.842;2022-11-20T07:36:47;20.30;;;9.33;;
39020;SDS011;25188;51.958;5.842;2022-11-20T07:39:13;17.13;;;8.90;;
39020;SDS011;25188;51.958;5.842;2022-11-20T07:41:39;17.90;;;9.60;;
39020;SDS011;25188;51.958;5.842;2022-11-20T07:44:05;19.33;;;8.90;;
39020;SDS011;25188;51.958;5.842;2022-11-20T07:46:30;19.10;;;10.53;;
39020;SDS011;25188;51.958;5.842;2022-11-20T07:48:56;22.13;;;10.90;;
39020;SDS011;25188;51.958;5.842;2022-11-20T07:51:22;17.13;;;8.73;;
39020;SDS011;25188;51.958;5.842;2022-11-20T07:53:50;21.80;;;9.80;;
39020;SDS011;25188;51.958;5.842;2022-11-20T07:56:16;16.57;;;9.20;;
39020;SDS011;25188;51.958;5.842;2022-11-20T07:58:42;19.67;;;9.77;;
39020;SDS011;25188;51.958;5.842;2022-11-20T08:01:08;21.23;;;10.77;;
39020;SDS011;25188;51.958;5.842;2022-11-20T08:03:34;19.93;;;9.73;;
39020;SDS011;25188;51.958;5.842;2022-11-20T08:06:02;20.20;;;10.50;;
39020;SDS011;25188;51.958;5.842;2022-11-20T08:08:28;23.70;;;10.67;;
39020;SDS011;25188;51.958;5.842;2022-11-20T08:10:56;22.83;;;11.17;;
39020;SDS011;25188;51.958;5.842;2022-11-20T08:13:42;20.03;;;10.27;;
39020;SDS011;25188;51.958;5.842;2022-11-20T08:16:27;20.63;;;10.50;;
39020;SDS011;25188;51.958;5.842;2022-11-20T08:18:53;18.50;;;9.73;;
39020;SDS011;25188;51.958;5.842;2022-11-20T08:21:19;20.90;;;9.67;;
39020;SDS011;25188;51.958;5.842;2022-11-20T08:23:44;21.20;;;11.10;;
39020;SDS011;25188;51.958;5.842;2022-11-20T08:26:10;17.83;;;9.70;;
39020;SDS011;25188;51.958;5.842;2022-11-20T08:28:35;21.53;;;11.07;;
39020;SDS011;25188;51.958;5.842;2022-11-20T08:31:02;20.07;;;10.93;;
39020;SDS011;25188;51.958;5.842;2022-11-20T08:33:28;22.73;;;10.13;;
39020;SDS011;25188;51.958;5.842;2022-11-20T08:35:58;20.97;;;10.10;;
39020;SDS011;25188;51.958;5.842;2022-11-20T08:38:28;20.40;;;10.88;;
39020;SDS011;25188;51.958;5.842;2022-11-20T08:40:57;20.67;;;10.23;;
39020;SDS011;25188;51.958;5.842;2022-11-20T08:43:44;19.97;;;10.50;;
39020;SDS011;25188;51.958;5.842;2022-11-20T08:46:10;20.83;;;10.63;;
39020;SDS011;25188;51.958;5.842;2022-11-20T08:48:35;21.40;;;11.73;;
39020;SDS011;25188;51.958;5.842;2022-11-20T08:51:01;22.53;;;11.90;;
39020;SDS011;25188;51.958;5.842;2022-11-20T08:53:27;19.80;;;11.80;;
39020;SDS011;25188;51.958;5.842;2022-11-20T08:55:53;21.83;;;12.00;;
39020;SDS011;25188;51.958;5.842;2022-11-20T08:58:18;20.53;;;12.30;;
39020;SDS011;25188;51.958;5.842;2022-11-20T09:00:44;20.37;;;12.00;;
39020;SDS011;25188;51.958;5.842;2022-11-20T09:03:09;23.10;;;13.07;;
39020;SDS011;25188;51.958;5.842;2022-11-20T09:05:35;24.43;;;13.50;;
39020;SDS011;25188;51.958;5.842;2022-11-20T09:08:01;21.40;;;11.57;;
39020;SDS011;25188;51.958;5.842;2022-11-20T09:10:27;22.60;;;11.83;;
39020;SDS011;25188;51.958;5.842;2022-11-20T09:12:53;22.40;;;12.77;;
39020;SDS011;25188;51.958;5.842;2022-11-20T09:15:20;20.47;;;11.47;;
39020;SDS011;25188;51.958;5.842;2022-11-20T09:17:56;22.63;;;11.90;;
39020;SDS011;25188;51.958;5.842;2022-11-20T09:20:24;22.13;;;12.00;;
39020;SDS011;25188;51.958;5.842;2022-11-20T09:22:50;26.80;;;12.83;;
39020;SDS011;25188;51.958;5.842;2022-11-20T09:25:16;23.87;;;13.20;;
39020;SDS011;25188;51.958;5.842;2022-11-20T09:27:42;21.80;;;12.43;;
39020;SDS011;25188;51.958;5.842;2022-11-20T09:30:09;20.73;;;11.67;;
39020;SDS011;25188;51.958;5.842;2022-11-20T09:32:35;24.70;;;12.97;;
39020;SDS011;25188;51.958;5.842;2022-11-20T09:35:01;22.80;;;13.17;;
39020;SDS011;25188;51.958;5.842;2022-11-20T09:37:26;24.63;;;12.77;;
39020;SDS011;25188;51.958;5.842;2022-11-20T09:39:52;21.77;;;11.97;;
39020;SDS011;25188;51.958;5.842;2022-11-20T09:42:27;21.70;;;12.17;;
39020;SDS011;25188;51.958;5.842;2022-11-20T09:50:06;23.13;;;13.47;;
39020;SDS011;25188;51.958;5.842;2022-11-20T09:55:15;24.97;;;13.73;;
39020;SDS011;25188;51.958;5.842;2022-11-20T09:57:45;22.50;;;13.27;;
39020;SDS011;25188;51.958;5.842;2022-11-20T10:00:13;25.57;;;13.40;;
39020;SDS011;25188;51.958;5.842;2022-11-20T10:02:48;23.63;;;13.03;;
39020;SDS011;25188;51.958;5.842;2022-11-20T10:05:26;24.50;;;14.10;;
39020;SDS011;25188;51.958;5.842;2022-11-20T10:10:32;21.97;;;12.53;;
39020;SDS011;25188;51.958;5.842;2022-11-20T10:13:05;22.90;;;13.03;;
39020;SDS011;25188;51.958;5.842;2022-11-20T10:15:47;23.45;;;13.77;;
39020;SDS011;25188;51.958;5.842;2022-11-20T10:18:53;25.55;;;14.40;;
39020;SDS011;25188;51.958;5.842;2022-11-20T10:32:35;21.23;;;13.40;;
39020;SDS011;25188;51.958;5.842;2022-11-20T10:35:39;25.83;;;13.30;;
39020;SDS011;25188;51.958;5.842;2022-11-20T10:38:16;24.20;;;13.43;;
39020;SDS011;25188;51.958;5.842;2022-11-20T10:40:56;23.97;;;14.13;;
39020;SDS011;25188;51.958;5.842;2022-11-20T10:43:45;22.77;;;14.00;;
39020;SDS011;25188;51.958;5.842;2022-11-20T10:46:17;22.97;;;13.50;;
39020;SDS011;25188;51.958;5.842;2022-11-20T11:01:59;21.88;;;13.73;;
39020;SDS011;25188;51.958;5.842;2022-11-20T11:06:54;26.83;;;14.87;;
39020;SDS011;25188;51.958;5.842;2022-11-20T11:09:38;23.10;;;14.73;;
39020;SDS011;25188;51.958;5.842;2022-11-20T11:12:08;28.00;;;14.87;;
39020;SDS011;25188;51.958;5.842;2022-11-20T11:14:44;25.60;;;14.80;;
39020;SDS011;25188;51.958;5.842;2022-11-20T11:17:20;25.63;;;15.53;;
39020;SDS011;25188;51.958;5.842;2022-11-20T11:22:55;24.00;;;14.47;;
39020;SDS011;25188;51.958;5.842;2022-11-20T11:25:29;24.27;;;14.30;;
39020;SDS011;25188;51.958;5.842;2022-11-20T11:28:02;23.93;;;14.73;;
39020;SDS011;25188;51.958;5.842;2022-11-20T11:30:30;23.23;;;14.57;;
39020;SDS011;25188;51.958;5.842;2022-11-20T11:33:08;26.90;;;15.27;;
39020;SDS011;25188;51.958;5.842;2022-11-20T11:35:42;23.53;;;14.57;;
39020;SDS011;25188;51.958;5.842;2022-11-20T11:38:12;23.73;;;14.83;;
39020;SDS011;25188;51.958;5.842;2022-11-20T11:40:44;26.20;;;14.48;;
39020;SDS011;25188;51.958;5.842;2022-11-20T11:43:22;23.60;;;15.33;;
39020;SDS011;25188;51.958;5.842;2022-11-20T11:46:25;24.00;;;13.73;;
39020;SDS011;25188;51.958;5.842;2022-11-20T11:49:01;24.57;;;14.73;;
39020;SDS011;25188;51.958;5.842;2022-11-20T11:51:38;26.60;;;16.30;;
39020;SDS011;25188;51.958;5.842;2022-11-20T11:54:16;23.33;;;14.63;;
39020;SDS011;25188;51.958;5.842;2022-11-20T11:59:32;21.50;;;13.20;;
39020;SDS011;25188;51.958;5.842;2022-11-20T12:02:01;24.02;;;13.52;;
39020;SDS011;25188;51.958;5.842;2022-11-20T12:04:42;25.00;;;14.83;;
39020;SDS011;25188;51.958;5.842;2022-11-20T12:07:13;22.23;;;13.70;;
39020;SDS011;25188;51.958;5.842;2022-11-20T12:09:46;23.80;;;13.87;;
39020;SDS011;25188;51.958;5.842;2022-11-20T12:12:17;23.03;;;13.93;;
39020;SDS011;25188;51.958;5.842;2022-11-20T12:14:47;24.23;;;13.63;;
39020;SDS011;25188;51.958;5.842;2022-11-20T12:17:16;25.10;;;14.13;;
39020;SDS011;25188;51.958;5.842;2022-11-20T12:19:42;23.13;;;13.97;;
39020;SDS011;25188;51.958;5.842;2022-11-20T12:30:30;24.67;;;14.87;;
39020;SDS011;25188;51.958;5.842;2022-11-20T12:33:23;21.80;;;12.60;;
39020;SDS011;25188;51.958;5.842;2022-11-20T12:45:08;25.13;;;15.13;;
39020;SDS011;25188;51.958;5.842;2022-11-20T12:55:48;25.73;;;15.57;;
39020;SDS011;25188;51.958;5.842;2022-11-20T13:09:15;25.67;;;15.90;;
39020;SDS011;25188;51.958;5.842;2022-11-20T13:19:52;24.67;;;14.90;;
39020;SDS011;25188;51.958;5.842;2022-11-20T13:22:26;25.00;;;15.93;;
39020;SDS011;25188;51.958;5.842;2022-11-20T13:24:53;29.20;;;16.88;;
39020;SDS011;25188;51.958;5.842;2022-11-20T13:27:20;29.13;;;17.77;;
39020;SDS011;25188;51.958;5.842;2022-11-20T13:30:02;25.77;;;16.33;;
39020;SDS011;25188;51.958;5.842;2022-11-20T13:32:47;27.17;;;16.63;;
39020;SDS011;25188;51.958;5.842;2022-11-20T13:35:24;27.20;;;17.07;;
39020;SDS011;25188;51.958;5.842;2022-11-20T13:38:04;25.60;;;16.50;;
39020;SDS011;25188;51.958;5.842;2022-11-20T13:40:34;30.37;;;19.43;;
39020;SDS011;25188;51.958;5.842;2022-11-20T13:46:07;29.80;;;16.40;;
39020;SDS011;25188;51.958;5.842;2022-11-20T13:48:44;27.27;;;17.33;;
39020;SDS011;25188;51.958;5.842;2022-11-20T13:53:48;32.77;;;19.63;;
39020;SDS011;25188;51.958;5.842;2022-11-20T13:56:48;34.20;;;19.63;;
39020;SDS011;25188;51.958;5.842;2022-11-20T14:02:00;30.80;;;17.60;;
39020;SDS011;25188;51.958;5.842;2022-11-20T14:04:30;32.50;;;19.13;;
39020;SDS011;25188;51.958;5.842;2022-11-20T14:07:00;28.20;;;17.43;;
39020;SDS011;25188;51.958;5.842;2022-11-20T14:09:33;33.77;;;19.03;;
39020;SDS011;25188;51.958;5.842;2022-11-20T14:12:00;31.00;;;17.97;;
39020;SDS011;25188;51.958;5.842;2022-11-20T14:14:28;33.67;;;21.47;;
39020;SDS011;25188;51.958;5.842;2022-11-20T14:17:08;39.57;;;20.57;;
39020;SDS011;25188;51.958;5.842;2022-11-20T14:19:42;37.03;;;20.73;;
39020;SDS011;25188;51.958;5.842;2022-11-20T14:24:47;33.30;;;19.80;;
39020;SDS011;25188;51.958;5.842;2022-11-20T14:27:15;31.83;;;19.47;;
39020;SDS011;25188;51.958;5.842;2022-11-20T14:29:43;36.00;;;19.20;;
39020;SDS011;25188;51.958;5.842;2022-11-20T14:32:11;36.37;;;21.40;;
39020;SDS011;25188;51.958;5.842;2022-11-20T14:34:41;40.97;;;21.10;;
39020;SDS011;25188;51.958;5.842;2022-11-20T14:37:11;35.27;;;19.43;;
39020;SDS011;25188;51.958;5.842;2022-11-20T14:39:42;35.03;;;19.97;;
39020;SDS011;25188;51.958;5.842;2022-11-20T14:42:18;33.87;;;19.70;;
39020;SDS011;25188;51.958;5.842;2022-11-20T14:44:47;33.47;;;20.23;;
39020;SDS011;25188;51.958;5.842;2022-11-20T14:47:16;36.60;;;21.30;;
39020;SDS011;25188;51.958;5.842;2022-11-20T14:49:47;35.33;;;20.17;;
39020;SDS011;25188;51.958;5.842;2022-11-20T14:52:15;35.13;;;20.37;;
39020;SDS011;25188;51.958;5.842;2022-11-20T15:02:46;33.87;;;19.83;;
39020;SDS011;25188;51.958;5.842;2022-11-20T15:05:14;35.13;;;19.77;;
39020;SDS011;25188;51.958;5.842;2022-11-20T15:07:41;31.73;;;19.87;;
39020;SDS011;25188;51.958;5.842;2022-11-20T15:10:11;36.67;;;20.23;;
39020;SDS011;25188;51.958;5.842;2022-11-20T15:12:50;37.53;;;20.90;;
39020;SDS011;25188;51.958;5.842;2022-11-20T15:15:26;35.87;;;19.57;;
39020;SDS011;25188;51.958;5.842;2022-11-20T15:18:14;30.83;;;19.67;;
39020;SDS011;25188;51.958;5.842;2022-11-20T15:21:09;32.17;;;19.57;;
39020;SDS011;25188;51.958;5.842;2022-11-20T15:23:36;33.43;;;19.10;;
39020;SDS011;25188;51.958;5.842;2022-11-20T15:26:04;34.77;;;19.93;;
39020;SDS011;25188;51.958;5.842;2022-11-20T15:28:31;38.43;;;20.90;;
39020;SDS011;25188;51.958;5.842;2022-11-20T15:31:02;36.27;;;19.67;;
39020;SDS011;25188;51.958;5.842;2022-11-20T15:33:29;34.43;;;19.03;;
39020;SDS011;25188;51.958;5.842;2022-11-20T15:35:56;35.70;;;19.83;;
39020;SDS011;25188;51.958;5.842;2022-11-20T15:38:22;30.17;;;18.43;;
39020;SDS011;25188;51.958;5.842;2022-11-20T15:40:47;32.20;;;18.03;;
39020;SDS011;25188;51.958;5.842;2022-11-20T15:43:13;34.03;;;20.23;;
39020;SDS011;25188;51.958;5.842;2022-11-20T15:45:43;34.97;;;20.70;;
39020;SDS011;25188;51.958;5.842;2022-11-20T15:48:12;34.03;;;21.47;;
39020;SDS011;25188;51.958;5.842;2022-11-20T15:51:03;33.13;;;19.43;;
39020;SDS011;25188;51.958;5.842;2022-11-20T15:53:27;34.77;;;19.90;;
39020;SDS011;25188;51.958;5.842;2022-11-20T15:55:52;40.67;;;21.20;;
39020;SDS011;25188;51.958;5.842;2022-11-20T15:58:18;36.83;;;21.40;;
39020;SDS011;25188;51.958;5.842;2022-11-20T16:00:44;34.57;;;21.10;;
39020;SDS011;25188;51.958;5.842;2022-11-20T16:03:11;35.37;;;19.73;;
39020;SDS011;25188;51.958;5.842;2022-11-20T16:05:37;38.20;;;20.60;;
39020;SDS011;25188;51.958;5.842;2022-11-20T16:08:03;38.53;;;21.73;;
39020;SDS011;25188;51.958;5.842;2022-11-20T16:10:29;36.33;;;22.10;;
39020;SDS011;25188;51.958;5.842;2022-11-20T16:12:55;32.43;;;19.10;;
39020;SDS011;25188;51.958;5.842;2022-11-20T16:15:39;35.47;;;19.77;;
39020;SDS011;25188;51.958;5.842;2022-11-20T16:18:12;34.40;;;19.67;;
39020;SDS011;25188;51.958;5.842;2022-11-20T16:20:39;35.00;;;20.17;;
39020;SDS011;25188;51.958;5.842;2022-11-20T16:23:05;34.93;;;21.30;;
39020;SDS011;25188;51.958;5.842;2022-11-20T16:25:31;36.43;;;20.23;;
39020;SDS011;25188;51.958;5.842;2022-11-20T16:27:57;33.00;;;19.20;;
39020;SDS011;25188;51.958;5.842;2022-11-20T16:30:23;34.07;;;19.97;;
39020;SDS011;25188;51.958;5.842;2022-11-20T16:32:49;36.73;;;20.67;;
39020;SDS011;25188;51.958;5.842;2022-11-20T16:35:15;34.47;;;20.93;;
39020;SDS011;25188;51.958;5.842;2022-11-20T16:37:41;36.43;;;21.07;;